54PA weather

Pine Bottom Heliport
Martinsburg, Pennsylvania, United States

Public forecast

Using degrees Fahrenheit for public forecast. Weather courtesy of forecast.io.

METAR (pilot weather report)

Closest report is Altoona Blair County Airport, 3.7 nm (6.8 km) N. Retrieved 2019/05/25 20:53 UTC (40 minutes ago):

KAOO 252053Z AUTO 18009KT 10SM -RA SCT030 SCT050 OVC100 22/19 A3007 RMK AO2 LTG DSNT S RAB08 SLP174 P0010 60010 T02220194 56007

TAF (pilot weather forecast)

Forecast is more than 6 hours old.

Closest forecast is Altoona Blair County Airport, 3.7 nm (6.8 km) N. Retrieved 2019/05/25 12:57 UTC (9 hours ago):

TAF KAOO 251154Z 2512/2612 00000KT P6SM SKC FM251500 17006KT P6SM OVC050 FM252100 24008G14KT P6SM -SHRA SCT040 BKN250 FM260200 22008KT P6SM BKN040